Haithabu — DK7933 — position and weather

sailwx.info

Track history (hours):
 
Tides and Currents Weather Stations Pressure Air Temp Water Temp Dewpoint Dewpoint Depression Visibility Wind Speed Wind Dir Waves Ship Positions

Haithabu

Last reported at 2019-Aug-26 08:27 UTC. Time now 2019-Aug-26 09:01 UTC.
Position N 54°20' E 010°09'.

Length 40 m; draft 2 m.

MMSI: 211651920.

Date/timePositionNaut miles runAvg speedWind from/ knotsBaromVisibWave heightAir tempDewpointWater temp
2019-Aug-26 08:27N 54°20' E 010°09'0 0.5
2019-Aug-26 07:59N 54°20' E 010°10'1 2.7
2019-Aug-26 07:31N 54°22' E 010°10'4 8.2
2019-Aug-26 07:01N 54°25' E 010°12'4 7.6
2019-Aug-26 06:30N 54°29' E 010°10'4 8.5
2019-Aug-26 06:00N 54°30' E 010°03'4 8.9
2019-Aug-26 05:30N 54°29' E 009°56'2 4.3
2019-Aug-26 04:58N 54°28' E 009°52'0 0.0
2019-Aug-26 04:29N 54°28' E 009°52'0 0.0
2019-Aug-26 03:54N 54°28' E 009°52'0 0.0
2019-Aug-26 03:21N 54°28' E 009°52'0 0.0
2019-Aug-26 02:59N 54°28' E 009°52'0 0.0
2019-Aug-26 02:29N 54°28' E 009°52'0 0.0
2019-Aug-26 01:45N 54°28' E 009°52'0 0.0
2019-Aug-26 01:28N 54°28' E 009°52'0 0.0
2019-Aug-26 01:00N 54°28' E 009°52'0 0.0
2019-Aug-26 00:25N 54°28' E 009°52'0 0.0
2019-Aug-25 23:53N 54°28' E 009°52'0 0.0
2019-Aug-25 23:30N 54°28' E 009°52'0 0.0
2019-Aug-25 23:00N 54°28' E 009°52'0 0.0
2019-Aug-25 22:26N 54°28' E 009°52'0 0.0
2019-Aug-25 22:00N 54°28' E 009°52'0 0.0
2019-Aug-25 21:26N 54°28' E 009°52'0 0.0
2019-Aug-25 21:00N 54°28' E 009°52'0 0.0
2019-Aug-25 20:26N 54°28' E 009°52'0 0.0
2019-Aug-25 19:55N 54°28' E 009°52'0 0.0
2019-Aug-25 19:29N 54°28' E 009°52'0 0.0
2019-Aug-25 18:55N 54°28' E 009°52'0 0.0
2019-Aug-25 18:28N 54°28' E 009°52'0 0.0
2019-Aug-25 17:52N 54°28' E 009°52'0 0.0
2019-Aug-25 17:19N 54°28' E 009°52'0 0.0
2019-Aug-25 16:56N 54°28' E 009°52'0 0.0
2019-Aug-25 16:28N 54°28' E 009°52'0 0.0
2019-Aug-25 15:59N 54°28' E 009°52'0 0.0
2019-Aug-25 15:22N 54°28' E 009°52'0 0.0
2019-Aug-25 14:58N 54°28' E 009°52'0 0.0
2019-Aug-25 14:22N 54°28' E 009°52'0 0.0
2019-Aug-25 13:55N 54°28' E 009°52'0 0.0
2019-Aug-25 13:25N 54°28' E 009°52'0 0.0
2019-Aug-25 12:58N 54°28' E 009°52'0 0.0
2019-Aug-25 12:24N 54°28' E 009°52'0 0.0
2019-Aug-25 11:55N 54°28' E 009°52'0 0.0
2019-Aug-25 11:20N 54°28' E 009°52'0 0.0
2019-Aug-25 10:56N 54°28' E 009°52'0 0.0
2019-Aug-25 10:30N 54°28' E 009°52'0 0.0
2019-Aug-25 09:53N 54°28' E 009°52'0 0.0
2019-Aug-25 09:26N 54°28' E 009°52'0 0.0
2019-Aug-25 08:57N 54°28' E 009°52'0 0.0
2019-Aug-25 08:25N 54°28' E 009°52'0 0.0
2019-Aug-25 07:58N 54°28' E 009°52'0 0.0
2019-Aug-25 07:28N 54°28' E 009°52'0 0.0
2019-Aug-25 06:58N 54°28' E 009°52'0 0.0
2019-Aug-25 06:29N 54°28' E 009°52'0 0.0
2019-Aug-25 06:00N 54°28' E 009°52'0 0.0
2019-Aug-25 05:27N 54°28' E 009°52'0 0.0
2019-Aug-25 04:59N 54°28' E 009°52'0 0.0
2019-Aug-25 04:25N 54°28' E 009°52'0 0.0
2019-Aug-25 03:54N 54°28' E 009°52'0 0.0
2019-Aug-25 03:31N 54°28' E 009°52'0 0.0
2019-Aug-25 02:52N 54°28' E 009°52'0 0.0
2019-Aug-25 02:03N 54°28' E 009°52'0 0.0
2019-Aug-25 01:50N 54°28' E 009°52'0 0.0
2019-Aug-25 01:21N 54°28' E 009°52'0 0.0
2019-Aug-25 01:00N 54°28' E 009°52'0 0.0
2019-Aug-25 00:28N 54°28' E 009°52'0 0.0
2019-Aug-24 23:57N 54°28' E 009°52'0 0.0
2019-Aug-24 23:30N 54°28' E 009°52'0 0.0
2019-Aug-24 22:58N 54°28' E 009°52'0 0.0
2019-Aug-24 22:29N 54°28' E 009°52'0 0.0
2019-Aug-24 21:55N 54°28' E 009°52'0 0.0
2019-Aug-24 21:31N 54°28' E 009°52'0 0.0
2019-Aug-24 21:00N 54°28' E 009°52'0 0.0
2019-Aug-24 20:28N 54°28' E 009°52'0 0.0
2019-Aug-24 19:56N 54°28' E 009°52'0 0.0
2019-Aug-24 19:31N 54°28' E 009°52'0 0.0
2019-Aug-24 18:59N 54°28' E 009°52'0 0.0
2019-Aug-24 18:28N 54°28' E 009°52'0 0.0
2019-Aug-24 17:58N 54°28' E 009°52'0 0.0
2019-Aug-24 17:28N 54°28' E 009°52'0 0.0
2019-Aug-24 17:00N 54°28' E 009°52'0 0.0
2019-Aug-24 16:29N 54°28' E 009°52'0 0.0
2019-Aug-24 15:58N 54°28' E 009°52'0 0.0
2019-Aug-24 15:29N 54°28' E 009°52'0 0.0
2019-Aug-24 15:00N 54°28' E 009°52'0 0.0
2019-Aug-24 14:29N 54°28' E 009°52'0 0.0
2019-Aug-24 13:49N 54°28' E 009°52'0 0.0
2019-Aug-24 13:27N 54°28' E 009°52'0 0.0
2019-Aug-24 12:54N 54°28' E 009°52'0 0.0
2019-Aug-24 12:28N 54°28' E 009°52'0 0.0
2019-Aug-24 11:53N 54°28' E 009°52'0 0.0
2019-Aug-24 11:25N 54°28' E 009°52'0 0.0
2019-Aug-24 10:56N 54°28' E 009°52'0 0.0
2019-Aug-24 10:30N 54°28' E 009°52'0 0.0
2019-Aug-24 10:00N 54°28' E 009°52'0 0.0
2019-Aug-24 09:24N 54°28' E 009°52'0 0.0
2019-Aug-24 08:50N 54°28' E 009°52'0 0.0
2019-Aug-24 08:28N 54°28' E 009°52'0 0.0
2019-Aug-24 07:54N 54°28' E 009°52'0 0.0
2019-Aug-24 07:30N 54°28' E 009°52'0 0.0
2019-Aug-24 06:56N 54°28' E 009°52'0 0.0
2019-Aug-24 06:28N 54°28' E 009°52'0 0.0
2019-Aug-24 05:55N 54°28' E 009°52'0 0.0
2019-Aug-24 05:24N 54°28' E 009°52'0 0.0
2019-Aug-24 04:57N 54°28' E 009°52'0 0.0
2019-Aug-24 04:21N 54°28' E 009°52'0 0.0
2019-Aug-24 03:58N 54°28' E 009°52'0 0.0
2019-Aug-24 03:28N 54°28' E 009°52'0 0.0
2019-Aug-24 02:59N 54°28' E 009°52'0 0.0
2019-Aug-24 02:28N 54°28' E 009°52'0 0.0
2019-Aug-24 01:58N 54°28' E 009°52'0 0.0
2019-Aug-24 01:26N 54°28' E 009°52'0 0.0
2019-Aug-24 00:58N 54°28' E 009°52'0 0.0
2019-Aug-24 00:30N 54°28' E 009°52'0 0.0
2019-Aug-23 23:54N 54°28' E 009°52'0 0.0
2019-Aug-23 23:27N 54°28' E 009°52'0 0.0
2019-Aug-23 22:46N 54°28' E 009°52'0 0.0
2019-Aug-23 22:24N 54°28' E 009°52'0 0.0
2019-Aug-23 22:00N 54°28' E 009°52'0 0.0
2019-Aug-23 21:23N 54°28' E 009°52'0 0.0
2019-Aug-23 20:55N 54°28' E 009°52'0 0.0
2019-Aug-23 20:26N 54°28' E 009°52'0 0.0
2019-Aug-23 19:56N 54°28' E 009°52'0 0.0
2019-Aug-23 19:28N 54°28' E 009°52'0 0.0
2019-Aug-23 18:58N 54°28' E 009°52'0 0.0
2019-Aug-23 18:29N 54°28' E 009°52'0 0.0
2019-Aug-23 17:55N 54°28' E 009°52'0 0.0
2019-Aug-23 17:15N 54°28' E 009°52'0 0.0
2019-Aug-23 16:58N 54°28' E 009°52'0 0.0
2019-Aug-23 16:19N 54°28' E 009°52'0 0.0
2019-Aug-23 15:58N 54°28' E 009°52'0 0.0
2019-Aug-23 15:30N 54°28' E 009°52'0 0.0
2019-Aug-23 14:53N 54°28' E 009°52'0 0.0
2019-Aug-23 14:26N 54°28' E 009°52'0 0.0
2019-Aug-23 13:53N 54°28' E 009°52'0 0.0
2019-Aug-23 13:23N 54°28' E 009°52'0 0.0
2019-Aug-23 12:53N 54°28' E 009°52'0 0.0
2019-Aug-23 12:26N 54°28' E 009°52'0 0.0
2019-Aug-23 11:58N 54°28' E 009°52'0 0.0
2019-Aug-23 11:22N 54°28' E 009°52'0 0.0
2019-Aug-23 10:57N 54°28' E 009°52'0 0.0
2019-Aug-23 10:29N 54°28' E 009°52'0 0.0
2019-Aug-23 09:59N 54°28' E 009°52'0 0.0
2019-Aug-23 09:28N 54°28' E 009°52'0 0.0
2019-Aug-23 09:00N 54°28' E 009°52'0 0.0
2019-Aug-23 08:28N 54°28' E 009°52'0 0.0
2019-Aug-23 07:54N 54°28' E 009°52'0 0.0
2019-Aug-23 07:28N 54°28' E 009°52'0 0.0
2019-Aug-23 06:58N 54°28' E 009°52'0 0.0
2019-Aug-23 06:30N 54°28' E 009°52'0 0.0
2019-Aug-23 06:00N 54°28' E 009°52'0 0.0
2019-Aug-23 05:30N 54°28' E 009°52'0 0.0
2019-Aug-23 04:57N 54°28' E 009°52'0 0.0
2019-Aug-23 04:30N 54°28' E 009°52'0 0.0
2019-Aug-23 04:00N 54°28' E 009°52'0 0.0
2019-Aug-23 03:23N 54°28' E 009°52'0 0.0
2019-Aug-23 02:57N 54°28' E 009°52'0 0.0
2019-Aug-23 02:24N 54°28' E 009°52'0 0.0
2019-Aug-23 01:58N 54°28' E 009°52'0 0.0
2019-Aug-23 01:27N 54°28' E 009°52'0 0.0
2019-Aug-23 01:00N 54°28' E 009°52'0 0.0
2019-Aug-23 00:24N 54°28' E 009°52'0 0.0
2019-Aug-23 00:00N 54°28' E 009°52'0 0.0
2019-Aug-22 23:23N 54°28' E 009°52'0 0.0
2019-Aug-22 22:56N 54°28' E 009°52'0 0.0
2019-Aug-22 22:27N 54°28' E 009°52'0 0.0
2019-Aug-22 21:46N 54°28' E 009°52'0 0.0
2019-Aug-22 21:21N 54°28' E 009°52'0 0.0
2019-Aug-22 20:58N 54°28' E 009°52'0 0.0
2019-Aug-22 20:29N 54°28' E 009°52'0 0.0
2019-Aug-22 19:59N 54°28' E 009°52'0 0.0
2019-Aug-22 19:26N 54°28' E 009°52'0 0.0
2019-Aug-22 18:54N 54°28' E 009°52'0 0.0
2019-Aug-22 18:24N 54°28' E 009°52'0 0.0
2019-Aug-22 18:00N 54°28' E 009°52'0 0.0
2019-Aug-22 17:29N 54°28' E 009°52'0 0.0
2019-Aug-22 16:59N 54°28' E 009°52'0 0.0
2019-Aug-22 16:21N 54°28' E 009°52'0 0.0
2019-Aug-22 15:52N 54°28' E 009°52'0 0.0
2019-Aug-22 15:29N 54°28' E 009°52'0 0.0
2019-Aug-22 14:58N 54°28' E 009°52'0 0.0
2019-Aug-22 14:28N 54°28' E 009°52'0 0.0
2019-Aug-22 14:00N 54°28' E 009°52'0 0.0
2019-Aug-22 13:28N 54°28' E 009°52'0 0.0
2019-Aug-22 12:54N 54°28' E 009°52'0 0.0
2019-Aug-22 12:19N 54°28' E 009°52'0 0.0
2019-Aug-22 11:53N 54°28' E 009°52'0 0.0
2019-Aug-22 11:23N 54°28' E 009°52'0 0.0
2019-Aug-22 10:53N 54°28' E 009°52'0 0.0
2019-Aug-22 10:18N 54°28' E 009°52'0 0.0
2019-Aug-22 10:00N 54°28' E 009°52'0 0.0
2019-Aug-22 09:26N 54°28' E 009°52'0 0.0
2019-Aug-22 08:58N 54°28' E 009°52'0 0.0
2019-Aug-22 08:27N 54°28' E 009°52'0 0.0
2019-Aug-22 07:57N 54°28' E 009°52'0 0.0
2019-Aug-22 07:30N 54°28' E 009°52'0 0.0
2019-Aug-22 07:00N 54°28' E 009°52'0 0.0
2019-Aug-22 06:24N 54°28' E 009°52'0 0.0
2019-Aug-22 05:52N 54°28' E 009°52'0 0.0
2019-Aug-22 05:20N 54°28' E 009°52'0 0.0
2019-Aug-22 04:53N 54°28' E 009°52'0 0.0
2019-Aug-22 04:28N 54°28' E 009°52'0 0.0
2019-Aug-22 03:56N 54°28' E 009°52'0 0.0
2019-Aug-22 03:29N 54°28' E 009°52'0 0.0
2019-Aug-22 02:53N 54°28' E 009°52'0 0.0
2019-Aug-22 02:26N 54°28' E 009°52'0 0.0
2019-Aug-22 01:52N 54°28' E 009°52'0 0.0
2019-Aug-22 01:22N 54°28' E 009°52'0 0.0
2019-Aug-22 00:59N 54°28' E 009°52'0 0.0
2019-Aug-22 00:28N 54°28' E 009°52'0 0.0
2019-Aug-22 00:00N 54°28' E 009°52'0 0.0
2019-Aug-21 23:29N 54°28' E 009°52'0 0.0
2019-Aug-21 22:58N 54°28' E 009°52'0 0.0
2019-Aug-21 22:26N 54°28' E 009°52'0 0.0
2019-Aug-21 21:59N 54°28' E 009°52'0 0.0
2019-Aug-21 21:30N 54°28' E 009°52'0 0.0
2019-Aug-21 21:00N 54°28' E 009°52'0 0.0
2019-Aug-21 20:27N 54°28' E 009°52'0 0.0
2019-Aug-21 19:54N 54°28' E 009°52'0 0.0
2019-Aug-21 19:21N 54°28' E 009°52'0 0.0
2019-Aug-21 18:58N 54°28' E 009°52'0 0.0
2019-Aug-21 18:29N 54°28' E 009°52'0 0.0
2019-Aug-21 17:46N 54°28' E 009°52'0 0.0
2019-Aug-21 17:28N 54°28' E 009°52'0 0.0
2019-Aug-21 16:53N 54°28' E 009°52'0 0.0
2019-Aug-21 16:20N 54°28' E 009°52'0 0.0
2019-Aug-21 15:59N 54°28' E 009°52'0 0.0
2019-Aug-21 15:30N 54°28' E 009°52'0 0.0
2019-Aug-21 14:58N 54°28' E 009°52'0 0.0
2019-Aug-21 14:29N 54°28' E 009°52'0 0.0
2019-Aug-21 13:44N 54°28' E 009°52'0 0.0
2019-Aug-21 13:29N 54°28' E 009°52'0 0.0
2019-Aug-21 12:59N 54°28' E 009°52'0 0.0
2019-Aug-21 12:30N 54°28' E 009°52'0 0.0
2019-Aug-21 11:56N 54°28' E 009°52'0 0.0
2019-Aug-21 11:24N 54°28' E 009°52'0 0.0
2019-Aug-21 10:48N 54°28' E 009°52'0 0.0
2019-Aug-21 10:27N 54°28' E 009°52'0 0.0
2019-Aug-21 10:00N 54°28' E 009°52'0 0.0
2019-Aug-21 09:30N 54°28' E 009°52'0 0.0
2019-Aug-21 08:58N 54°28' E 009°52'0 0.0
2019-Aug-21 08:30N 54°28' E 009°52'0 0.0
2019-Aug-21 07:51N 54°28' E 009°52'0 0.0
2019-Aug-21 07:15N 54°28' E 009°52'0 0.0
2019-Aug-21 07:00N 54°28' E 009°52'0 0.0
2019-Aug-21 06:30N 54°28' E 009°52'0 0.0
2019-Aug-21 06:00N 54°28' E 009°52'0 0.0
2019-Aug-21 05:21N 54°28' E 009°52'0 0.0
2019-Aug-21 04:59N 54°28' E 009°52'0 0.0
2019-Aug-21 04:25N 54°28' E 009°52'0 0.0
2019-Aug-21 03:56N 54°28' E 009°52'0 0.0
2019-Aug-21 03:26N 54°28' E 009°52'0 0.0
2019-Aug-21 02:57N 54°28' E 009°52'0 0.0
2019-Aug-21 02:28N 54°28' E 009°52'0 0.0
2019-Aug-21 01:54N 54°28' E 009°52'0 0.0
2019-Aug-21 01:29N 54°28' E 009°52'0 0.0
2019-Aug-21 00:59N 54°28' E 009°52'0 0.0
2019-Aug-21 00:29N 54°28' E 009°52'0 0.0
2019-Aug-20 23:53N 54°28' E 009°52'0 0.0
2019-Aug-20 23:22N 54°28' E 009°52'0 0.0
2019-Aug-20 22:52N 54°28' E 009°52'0 0.0
2019-Aug-20 22:22N 54°28' E 009°52'0 0.0
2019-Aug-20 21:51N 54°28' E 009°52'0 0.0
2019-Aug-20 21:30N 54°28' E 009°52'0 0.0
2019-Aug-20 20:58N 54°28' E 009°52'0 0.0
2019-Aug-20 20:11N 54°28' E 009°52'0 0.0
2019-Aug-20 19:59N 54°28' E 009°52'0 0.0
2019-Aug-20 19:25N 54°28' E 009°52'0 0.0
2019-Aug-20 19:00N 54°28' E 009°52'0 0.0
2019-Aug-20 18:19N 54°28' E 009°52'0 0.0
2019-Aug-20 17:54N 54°28' E 009°52'0 0.0
2019-Aug-20 17:24N 54°28' E 009°52'0 0.0
2019-Aug-20 16:59N 54°28' E 009°52'0 0.0
2019-Aug-20 16:18N 54°28' E 009°52'0 0.0
2019-Aug-20 15:55N 54°28' E 009°52'0 0.0
2019-Aug-20 15:26N 54°28' E 009°52'0 0.0
2019-Aug-20 14:58N 54°28' E 009°52'0 0.0
2019-Aug-20 14:21N 54°28' E 009°52'0 0.0
2019-Aug-20 13:55N 54°28' E 009°52'0 0.0
2019-Aug-20 13:22N 54°28' E 009°52'0 0.0
2019-Aug-20 12:54N 54°28' E 009°52'0 0.0
2019-Aug-20 12:25N 54°28' E 009°52'0 0.0
2019-Aug-20 11:53N 54°28' E 009°52'0 0.0
2019-Aug-20 11:28N 54°28' E 009°52'0 0.0
2019-Aug-20 10:54N 54°28' E 009°52'0 0.0
2019-Aug-20 10:24N 54°28' E 009°52'0 0.0
2019-Aug-20 09:53N 54°28' E 009°52'0 0.0
2019-Aug-20 09:27N 54°28' E 009°52'0 0.0
2019-Aug-20 08:57N 54°28' E 009°52'0 0.0
2019-Aug-20 08:30N 54°28' E 009°52'0 0.0
2019-Aug-20 07:58N 54°28' E 009°52'0 0.0
2019-Aug-20 07:30N 54°28' E 009°52'0 0.0
2019-Aug-20 06:58N 54°28' E 009°52'0 0.0
2019-Aug-20 06:30N 54°28' E 009°52'0 0.0
2019-Aug-20 06:00N 54°28' E 009°52'0 0.0
2019-Aug-20 05:30N 54°28' E 009°52'0 0.0
2019-Aug-20 05:00N 54°28' E 009°52'0 0.0
2019-Aug-20 04:19N 54°28' E 009°52'0 0.0
2019-Aug-20 03:59N 54°28' E 009°52'0 0.0
2019-Aug-20 03:30N 54°28' E 009°52'0 0.0
2019-Aug-20 02:59N 54°28' E 009°52'0 0.0
2019-Aug-20 02:28N 54°28' E 009°52'0 0.0
2019-Aug-20 01:58N 54°28' E 009°52'0 0.0
2019-Aug-20 01:28N 54°28' E 009°52'0 0.0
2019-Aug-20 00:58N 54°28' E 009°52'0 0.0
2019-Aug-20 00:29N 54°28' E 009°52'0 0.0
2019-Aug-19 23:55N 54°28' E 009°52'0 0.0
2019-Aug-19 23:21N 54°28' E 009°52'0 0.0
2019-Aug-19 22:56N 54°28' E 009°52'0 0.0
2019-Aug-19 22:20N 54°28' E 009°52'0 0.0
2019-Aug-19 21:53N 54°28' E 009°52'0 0.0
2019-Aug-19 21:28N 54°28' E 009°52'0 0.0
2019-Aug-19 20:57N 54°28' E 009°52'0 0.0
2019-Aug-19 20:18N 54°28' E 009°52'0 0.0
2019-Aug-19 20:00N 54°28' E 009°52'0 0.0
2019-Aug-19 19:13N 54°28' E 009°52'0 0.0
2019-Aug-19 18:22N 54°28' E 009°52'0 0.0
2019-Aug-19 17:56N 54°28' E 009°52'0 0.0
2019-Aug-19 17:22N 54°28' E 009°52'0 0.0
2019-Aug-19 17:00N 54°28' E 009°52'0 0.0
2019-Aug-19 16:30N 54°28' E 009°52'0 0.0
2019-Aug-19 16:00N 54°28' E 009°52'0 0.0
2019-Aug-19 15:29N 54°28' E 009°52'0 0.0
2019-Aug-19 14:57N 54°28' E 009°52'0 0.0
2019-Aug-19 14:28N 54°28' E 009°52'0 0.0
2019-Aug-19 13:59N 54°28' E 009°52'0 0.0
2019-Aug-19 13:29N 54°28' E 009°52'0 0.0
2019-Aug-19 12:58N 54°28' E 009°52'0 0.0
2019-Aug-19 12:28N 54°28' E 009°52'0 0.0
2019-Aug-19 11:59N 54°28' E 009°52'0 0.0
2019-Aug-19 11:29N 54°28' E 009°52'0 0.0
2019-Aug-19 10:52N 54°28' E 009°52'0 0.0
2019-Aug-19 10:16N 54°28' E 009°52'0 0.0
2019-Aug-19 09:58N 54°28' E 009°52'0 0.0
2019-Aug-19 09:28N 54°28' E 009°52'0 0.0
2019-Aug-19 08:55N 54°28' E 009°52'0 0.0
2019-Aug-19 08:25N 54°28' E 009°52'0 0.0
2019-Aug-19 07:59N 54°28' E 009°52'0 0.0
2019-Aug-19 07:19N 54°28' E 009°52'0 0.0
2019-Aug-19 06:56N 54°28' E 009°52'0 0.0
2019-Aug-19 06:29N 54°28' E 009°52'0 0.0
2019-Aug-19 05:58N 54°28' E 009°52'0 0.0
2019-Aug-19 05:29N 54°28' E 009°52'0 0.0
2019-Aug-19 04:52N 54°28' E 009°52'0 0.0
2019-Aug-19 04:27N 54°28' E 009°52'0 0.0
2019-Aug-19 03:51N 54°28' E 009°52'0 0.0
2019-Aug-19 03:21N 54°28' E 009°52'0 0.0
2019-Aug-19 02:51N 54°28' E 009°52'0 0.0
2019-Aug-19 02:28N 54°28' E 009°52'0 0.0
2019-Aug-19 01:58N 54°28' E 009°52'0 0.0
2019-Aug-19 01:23N 54°28' E 009°52'0 0.0
2019-Aug-19 00:59N 54°28' E 009°52'0 0.0
2019-Aug-19 00:29N 54°28' E 009°52'0 0.0
2019-Aug-19 00:00N 54°28' E 009°52'0 0.0
2019-Aug-18 23:30N 54°28' E 009°52'0 0.0
2019-Aug-18 22:58N 54°28' E 009°52'0 0.0
2019-Aug-18 22:28N 54°28' E 009°52'0 0.0
2019-Aug-18 21:58N 54°28' E 009°52'0 0.0
2019-Aug-18 21:28N 54°28' E 009°52'0 0.0
2019-Aug-18 20:47N 54°28' E 009°52'0 0.0
2019-Aug-18 20:24N 54°28' E 009°52'0 0.0
2019-Aug-18 19:58N 54°28' E 009°52'0 0.0
2019-Aug-18 19:30N 54°28' E 009°52'0 0.0
2019-Aug-18 18:56N 54°28' E 009°52'0 0.0
2019-Aug-18 18:26N 54°28' E 009°52'0 0.0
2019-Aug-18 17:59N 54°28' E 009°52'0 0.0
2019-Aug-18 17:19N 54°28' E 009°52'0 0.0
2019-Aug-18 16:49N 54°28' E 009°52'0 0.0
2019-Aug-18 16:30N 54°28' E 009°52'0 0.0
2019-Aug-18 15:55N 54°28' E 009°52'0 0.0
2019-Aug-18 15:28N 54°28' E 009°52'0 0.0
2019-Aug-18 14:59N 54°28' E 009°52'0 0.0
2019-Aug-18 14:29N 54°28' E 009°52'0 0.0
2019-Aug-18 13:59N 54°28' E 009°52'0 0.0
2019-Aug-18 13:29N 54°28' E 009°52'0 0.0
2019-Aug-18 12:59N 54°28' E 009°52'0 0.0
2019-Aug-18 12:25N 54°28' E 009°52'0 0.0
2019-Aug-18 11:55N 54°28' E 009°52'0 0.0
2019-Aug-18 11:24N 54°28' E 009°52'0 0.0
2019-Aug-18 10:58N 54°28' E 009°52'0 0.0
2019-Aug-18 10:25N 54°28' E 009°52'0 0.0
2019-Aug-18 09:58N 54°28' E 009°52'0 0.0
2019-Aug-18 09:29N 54°28' E 009°52'0 0.0
2019-Aug-18 08:59N 54°28' E 009°52'0 0.0
2019-Aug-18 08:25N 54°28' E 009°52'0 0.0
2019-Aug-18 07:59N 54°28' E 009°52'0 0.0
2019-Aug-18 06:58N 54°28' E 009°52'0 0.0
2019-Aug-18 06:26N 54°28' E 009°52'0 0.0
2019-Aug-18 05:54N 54°28' E 009°52'0 0.0
2019-Aug-18 05:29N 54°28' E 009°52'0 0.0
2019-Aug-18 04:41N 54°28' E 009°52'0 0.0
2019-Aug-18 04:29N 54°28' E 009°52'0 0.0
2019-Aug-18 03:59N 54°28' E 009°52'0 0.0
2019-Aug-18 03:30N 54°28' E 009°52'0 0.0
2019-Aug-18 03:00N 54°28' E 009°52'0 0.0
2019-Aug-18 02:28N 54°28' E 009°52'0 0.0
2019-Aug-18 01:58N 54°28' E 009°52'0 0.0
2019-Aug-18 01:22N 54°28' E 009°52'0 0.0
2019-Aug-18 00:58N 54°28' E 009°52'0 0.0
2019-Aug-18 00:26N 54°28' E 009°52'0 0.0
2019-Aug-17 23:56N 54°28' E 009°52'0 0.0
2019-Aug-17 23:25N 54°28' E 009°52'0 0.0
2019-Aug-17 22:56N 54°28' E 009°52'0 0.0
2019-Aug-17 22:24N 54°28' E 009°52'0 0.0
2019-Aug-17 21:55N 54°28' E 009°52'0 0.0
2019-Aug-17 21:28N 54°28' E 009°52'0 0.0
2019-Aug-17 20:50N 54°28' E 009°52'0 0.0
2019-Aug-17 20:23N 54°28' E 009°52'0 0.0
2019-Aug-17 19:53N 54°28' E 009°52'0 0.0
2019-Aug-17 19:30N 54°28' E 009°52'0 0.0
2019-Aug-17 18:50N 54°28' E 009°52'0 0.0
2019-Aug-17 18:24N 54°28' E 009°52'0 0.0
2019-Aug-17 17:22N 54°28' E 009°52'0 0.0
2019-Aug-17 16:56N 54°28' E 009°52'0 0.0
2019-Aug-17 16:25N 54°28' E 009°52'0 0.0
2019-Aug-17 16:00N 54°28' E 009°52'0 0.0
2019-Aug-17 15:30N 54°28' E 009°52'0 0.0
2019-Aug-17 14:48N 54°28' E 009°52'0 0.0
2019-Aug-17 14:30N 54°28' E 009°52'0 0.0
2019-Aug-17 14:00N 54°28' E 009°52'0 0.0
2019-Aug-17 13:28N 54°28' E 009°52'0 0.0
2019-Aug-17 12:48N 54°28' E 009°52'0 0.0
2019-Aug-17 12:26N 54°28' E 009°52'0 0.0
2019-Aug-17 12:00N 54°28' E 009°52'0 0.0
2019-Aug-17 11:22N 54°28' E 009°52'0 0.0
2019-Aug-17 10:50N 54°28' E 009°52'0 0.0
2019-Aug-17 10:30N 54°28' E 009°52'0 0.0
2019-Aug-17 09:55N 54°28' E 009°52'0 0.0
2019-Aug-17 09:26N 54°28' E 009°52'0 0.0
2019-Aug-17 08:51N 54°28' E 009°52'0 0.0
2019-Aug-17 08:29N 54°28' E 009°52'0 0.0
2019-Aug-17 07:58N 54°28' E 009°52'0 0.0
2019-Aug-17 07:21N 54°28' E 009°52'0 0.0
2019-Aug-17 06:59N 54°28' E 009°52'0 0.0
2019-Aug-17 06:21N 54°28' E 009°52'0 0.0
2019-Aug-17 05:59N 54°28' E 009°52'0 0.0
2019-Aug-17 05:12N 54°28' E 009°52'0 0.0
2019-Aug-17 04:57N 54°28' E 009°52'0 0.0
2019-Aug-17 04:27N 54°28' E 009°52'0 0.0
2019-Aug-17 03:58N 54°28' E 009°52'0 0.0
2019-Aug-17 03:26N 54°28' E 009°52'0 0.0
2019-Aug-17 02:58N 54°28' E 009°52'0 0.0
2019-Aug-17 02:20N 54°28' E 009°52'0 0.0
2019-Aug-17 01:53N 54°28' E 009°52'0 0.0
2019-Aug-17 01:23N 54°28' E 009°52'0 0.0
2019-Aug-17 00:49N 54°28' E 009°52'0 0.0
2019-Aug-17 00:23N 54°28' E 009°52'0 0.0
2019-Aug-16 23:59N 54°28' E 009°52'0 0.0
2019-Aug-16 23:31N 54°28' E 009°52'0 0.0
2019-Aug-16 22:52N 54°28' E 009°52'0 0.0
2019-Aug-16 22:29N 54°28' E 009°52'0 0.0
2019-Aug-16 21:58N 54°28' E 009°52'0 0.0
2019-Aug-16 21:28N 54°28' E 009°52'0 0.0
2019-Aug-16 20:56N 54°28' E 009°52'0 0.0
2019-Aug-16 20:24N 54°28' E 009°52'0 0.0
2019-Aug-16 19:55N 54°28' E 009°52'0 0.0
2019-Aug-16 19:25N 54°28' E 009°52'0 0.0
2019-Aug-16 18:47N 54°28' E 009°52'0 0.0
2019-Aug-16 18:29N 54°28' E 009°52'0 0.0
2019-Aug-16 18:00N 54°28' E 009°52'0 0.0
2019-Aug-16 17:25N 54°28' E 009°52'0 0.0
2019-Aug-16 16:54N 54°28' E 009°52'0 0.0
2019-Aug-16 16:27N 54°28' E 009°52'0 0.0
2019-Aug-16 15:57N 54°28' E 009°52'0 0.0
2019-Aug-16 15:28N 54°28' E 009°52'0 0.0
2019-Aug-16 14:59N 54°28' E 009°52'0 0.0
2019-Aug-16 14:29N 54°28' E 009°52'0 0.0
2019-Aug-16 13:59N 54°28' E 009°52'0 0.0
2019-Aug-16 13:28N 54°28' E 009°52'0 0.0
2019-Aug-16 12:56N 54°28' E 009°52'0 0.0
2019-Aug-16 12:29N 54°28' E 009°52'0 0.0
2019-Aug-16 11:54N 54°28' E 009°52'0 0.0
2019-Aug-16 11:28N 54°28' E 009°52'0 0.0
2019-Aug-16 10:55N 54°28' E 009°52'0 0.0
2019-Aug-16 10:23N 54°28' E 009°52'0 0.0
2019-Aug-16 10:00N 54°28' E 009°52'0 0.0
2019-Aug-16 09:25N 54°28' E 009°52'0 0.0
2019-Aug-16 08:59N 54°28' E 009°52'0 0.0
2019-Aug-16 08:28N 54°28' E 009°52'  
Track history (hours):
 
Tides and Currents Weather Stations Pressure Air Temp Water Temp Dewpoint Dewpoint Depression Visibility Wind Speed Wind Dir Waves Ship Positions

Haithabu

Last reported at 2019-Aug-26 08:27 UTC. Time now 2019-Aug-26 09:01 UTC.
Position N 54°20' E 010°09'.

Length 40 m; draft 2 m.

MMSI: 211651920.

Date/timePositionNaut miles runAvg speedWind from/ knotsBaromVisibWave heightAir tempDewpointWater temp
2019-Aug-26 08:27N 54°20' E 010°09'0 0.5
2019-Aug-26 07:59N 54°20' E 010°10'1 2.7
2019-Aug-26 07:31N 54°22' E 010°10'4 8.2
2019-Aug-26 07:01N 54°25' E 010°12'4 7.6
2019-Aug-26 06:30N 54°29' E 010°10'4 8.5
2019-Aug-26 06:00N 54°30' E 010°03'4 8.9
2019-Aug-26 05:30N 54°29' E 009°56'2 4.3
2019-Aug-26 04:58N 54°28' E 009°52'0 0.0
2019-Aug-26 04:29N 54°28' E 009°52'0 0.0
2019-Aug-26 03:54N 54°28' E 009°52'0 0.0
2019-Aug-26 03:21N 54°28' E 009°52'0 0.0
2019-Aug-26 02:59N 54°28' E 009°52'0 0.0
2019-Aug-26 02:29N 54°28' E 009°52'0 0.0
2019-Aug-26 01:45N 54°28' E 009°52'0 0.0
2019-Aug-26 01:28N 54°28' E 009°52'0 0.0
2019-Aug-26 01:00N 54°28' E 009°52'0 0.0
2019-Aug-26 00:25N 54°28' E 009°52'0 0.0
2019-Aug-25 23:53N 54°28' E 009°52'0 0.0
2019-Aug-25 23:30N 54°28' E 009°52'0 0.0
2019-Aug-25 23:00N 54°28' E 009°52'0 0.0
2019-Aug-25 22:26N 54°28' E 009°52'0 0.0
2019-Aug-25 22:00N 54°28' E 009°52'0 0.0
2019-Aug-25 21:26N 54°28' E 009°52'0 0.0
2019-Aug-25 21:00N 54°28' E 009°52'0 0.0
2019-Aug-25 20:26N 54°28' E 009°52'0 0.0
2019-Aug-25 19:55N 54°28' E 009°52'0 0.0
2019-Aug-25 19:29N 54°28' E 009°52'0 0.0
2019-Aug-25 18:55N 54°28' E 009°52'0 0.0
2019-Aug-25 18:28N 54°28' E 009°52'0 0.0
2019-Aug-25 17:52N 54°28' E 009°52'0 0.0
2019-Aug-25 17:19N 54°28' E 009°52'0 0.0
2019-Aug-25 16:56N 54°28' E 009°52'0 0.0
2019-Aug-25 16:28N 54°28' E 009°52'0 0.0
2019-Aug-25 15:59N 54°28' E 009°52'0 0.0
2019-Aug-25 15:22N 54°28' E 009°52'0 0.0
2019-Aug-25 14:58N 54°28' E 009°52'0 0.0
2019-Aug-25 14:22N 54°28' E 009°52'0 0.0
2019-Aug-25 13:55N 54°28' E 009°52'0 0.0
2019-Aug-25 13:25N 54°28' E 009°52'0 0.0
2019-Aug-25 12:58N 54°28' E 009°52'0 0.0
2019-Aug-25 12:24N 54°28' E 009°52'0 0.0
2019-Aug-25 11:55N 54°28' E 009°52'0 0.0
2019-Aug-25 11:20N 54°28' E 009°52'0 0.0
2019-Aug-25 10:56N 54°28' E 009°52'0 0.0
2019-Aug-25 10:30N 54°28' E 009°52'0 0.0
2019-Aug-25 09:53N 54°28' E 009°52'0 0.0
2019-Aug-25 09:26N 54°28' E 009°52'0 0.0
2019-Aug-25 08:57N 54°28' E 009°52'0 0.0
2019-Aug-25 08:25N 54°28' E 009°52'0 0.0
2019-Aug-25 07:58N 54°28' E 009°52'0 0.0
2019-Aug-25 07:28N 54°28' E 009°52'0 0.0
2019-Aug-25 06:58N 54°28' E 009°52'0 0.0
2019-Aug-25 06:29N 54°28' E 009°52'0 0.0
2019-Aug-25 06:00N 54°28' E 009°52'0 0.0
2019-Aug-25 05:27N 54°28' E 009°52'0 0.0
2019-Aug-25 04:59N 54°28' E 009°52'0 0.0
2019-Aug-25 04:25N 54°28' E 009°52'0 0.0
2019-Aug-25 03:54N 54°28' E 009°52'0 0.0
2019-Aug-25 03:31N 54°28' E 009°52'0 0.0
2019-Aug-25 02:52N 54°28' E 009°52'0 0.0
2019-Aug-25 02:03N 54°28' E 009°52'0 0.0
2019-Aug-25 01:50N 54°28' E 009°52'0 0.0
2019-Aug-25 01:21N 54°28' E 009°52'0 0.0
2019-Aug-25 01:00N 54°28' E 009°52'0 0.0
2019-Aug-25 00:28N 54°28' E 009°52'0 0.0
2019-Aug-24 23:57N 54°28' E 009°52'0 0.0
2019-Aug-24 23:30N 54°28' E 009°52'0 0.0
2019-Aug-24 22:58N 54°28' E 009°52'0 0.0
2019-Aug-24 22:29N 54°28' E 009°52'0 0.0
2019-Aug-24 21:55N 54°28' E 009°52'0 0.0
2019-Aug-24 21:31N 54°28' E 009°52'0 0.0
2019-Aug-24 21:00N 54°28' E 009°52'0 0.0
2019-Aug-24 20:28N 54°28' E 009°52'0 0.0
2019-Aug-24 19:56N 54°28' E 009°52'0 0.0
2019-Aug-24 19:31N 54°28' E 009°52'0 0.0
2019-Aug-24 18:59N 54°28' E 009°52'0 0.0
2019-Aug-24 18:28N 54°28' E 009°52'0 0.0
2019-Aug-24 17:58N 54°28' E 009°52'0 0.0
2019-Aug-24 17:28N 54°28' E 009°52'0 0.0
2019-Aug-24 17:00N 54°28' E 009°52'0 0.0
2019-Aug-24 16:29N 54°28' E 009°52'0 0.0
2019-Aug-24 15:58N 54°28' E 009°52'0 0.0
2019-Aug-24 15:29N 54°28' E 009°52'0 0.0
2019-Aug-24 15:00N 54°28' E 009°52'0 0.0
2019-Aug-24 14:29N 54°28' E 009°52'0 0.0
2019-Aug-24 13:49N 54°28' E 009°52'0 0.0
2019-Aug-24 13:27N 54°28' E 009°52'0 0.0
2019-Aug-24 12:54N 54°28' E 009°52'0 0.0
2019-Aug-24 12:28N 54°28' E 009°52'0 0.0
2019-Aug-24 11:53N 54°28' E 009°52'0 0.0
2019-Aug-24 11:25N 54°28' E 009°52'0 0.0
2019-Aug-24 10:56N 54°28' E 009°52'0 0.0
2019-Aug-24 10:30N 54°28' E 009°52'0 0.0
2019-Aug-24 10:00N 54°28' E 009°52'0 0.0
2019-Aug-24 09:24N 54°28' E 009°52'0 0.0
2019-Aug-24 08:50N 54°28' E 009°52'0 0.0
2019-Aug-24 08:28N 54°28' E 009°52'0 0.0
2019-Aug-24 07:54N 54°28' E 009°52'0 0.0
2019-Aug-24 07:30N 54°28' E 009°52'0 0.0
2019-Aug-24 06:56N 54°28' E 009°52'0 0.0
2019-Aug-24 06:28N 54°28' E 009°52'0 0.0
2019-Aug-24 05:55N 54°28' E 009°52'0 0.0
2019-Aug-24 05:24N 54°28' E 009°52'0 0.0
2019-Aug-24 04:57N 54°28' E 009°52'0 0.0
2019-Aug-24 04:21N 54°28' E 009°52'0 0.0
2019-Aug-24 03:58N 54°28' E 009°52'0 0.0
2019-Aug-24 03:28N 54°28' E 009°52'0 0.0
2019-Aug-24 02:59N 54°28' E 009°52'0 0.0
2019-Aug-24 02:28N 54°28' E 009°52'0 0.0
2019-Aug-24 01:58N 54°28' E 009°52'0 0.0
2019-Aug-24 01:26N 54°28' E 009°52'0 0.0
2019-Aug-24 00:58N 54°28' E 009°52'0 0.0
2019-Aug-24 00:30N 54°28' E 009°52'0 0.0
2019-Aug-23 23:54N 54°28' E 009°52'0 0.0
2019-Aug-23 23:27N 54°28' E 009°52'0 0.0
2019-Aug-23 22:46N 54°28' E 009°52'0 0.0
2019-Aug-23 22:24N 54°28' E 009°52'0 0.0
2019-Aug-23 22:00N 54°28' E 009°52'0 0.0
2019-Aug-23 21:23N 54°28' E 009°52'0 0.0
2019-Aug-23 20:55N 54°28' E 009°52'0 0.0
2019-Aug-23 20:26N 54°28' E 009°52'0 0.0
2019-Aug-23 19:56N 54°28' E 009°52'0 0.0
2019-Aug-23 19:28N 54°28' E 009°52'0 0.0
2019-Aug-23 18:58N 54°28' E 009°52'0 0.0
2019-Aug-23 18:29N 54°28' E 009°52'0 0.0
2019-Aug-23 17:55N 54°28' E 009°52'0 0.0
2019-Aug-23 17:15N 54°28' E 009°52'0 0.0
2019-Aug-23 16:58N 54°28' E 009°52'0 0.0
2019-Aug-23 16:19N 54°28' E 009°52'0 0.0
2019-Aug-23 15:58N 54°28' E 009°52'0 0.0
2019-Aug-23 15:30N 54°28' E 009°52'0 0.0
2019-Aug-23 14:53N 54°28' E 009°52'0 0.0
2019-Aug-23 14:26N 54°28' E 009°52'0 0.0
2019-Aug-23 13:53N 54°28' E 009°52'0 0.0
2019-Aug-23 13:23N 54°28' E 009°52'0 0.0
2019-Aug-23 12:53N 54°28' E 009°52'0 0.0
2019-Aug-23 12:26N 54°28' E 009°52'0 0.0
2019-Aug-23 11:58N 54°28' E 009°52'0 0.0
2019-Aug-23 11:22N 54°28' E 009°52'0 0.0
2019-Aug-23 10:57N 54°28' E 009°52'0 0.0
2019-Aug-23 10:29N 54°28' E 009°52'0 0.0
2019-Aug-23 09:59N 54°28' E 009°52'0 0.0
2019-Aug-23 09:28N 54°28' E 009°52'0 0.0
2019-Aug-23 09:00N 54°28' E 009°52'0 0.0
2019-Aug-23 08:28N 54°28' E 009°52'0 0.0
2019-Aug-23 07:54N 54°28' E 009°52'0 0.0
2019-Aug-23 07:28N 54°28' E 009°52'0 0.0
2019-Aug-23 06:58N 54°28' E 009°52'0 0.0
2019-Aug-23 06:30N 54°28' E 009°52'0 0.0
2019-Aug-23 06:00N 54°28' E 009°52'0 0.0
2019-Aug-23 05:30N 54°28' E 009°52'0 0.0
2019-Aug-23 04:57N 54°28' E 009°52'0 0.0
2019-Aug-23 04:30N 54°28' E 009°52'0 0.0
2019-Aug-23 04:00N 54°28' E 009°52'0 0.0
2019-Aug-23 03:23N 54°28' E 009°52'0 0.0
2019-Aug-23 02:57N 54°28' E 009°52'0 0.0
2019-Aug-23 02:24N 54°28' E 009°52'0 0.0
2019-Aug-23 01:58N 54°28' E 009°52'0 0.0
2019-Aug-23 01:27N 54°28' E 009°52'0 0.0
2019-Aug-23 01:00N 54°28' E 009°52'0 0.0
2019-Aug-23 00:24N 54°28' E 009°52'0 0.0
2019-Aug-23 00:00N 54°28' E 009°52'0 0.0
2019-Aug-22 23:23N 54°28' E 009°52'0 0.0
2019-Aug-22 22:56N 54°28' E 009°52'0 0.0
2019-Aug-22 22:27N 54°28' E 009°52'0 0.0
2019-Aug-22 21:46N 54°28' E 009°52'0 0.0
2019-Aug-22 21:21N 54°28' E 009°52'0 0.0
2019-Aug-22 20:58N 54°28' E 009°52'0 0.0
2019-Aug-22 20:29N 54°28' E 009°52'0 0.0
2019-Aug-22 19:59N 54°28' E 009°52'0 0.0
2019-Aug-22 19:26N 54°28' E 009°52'0 0.0
2019-Aug-22 18:54N 54°28' E 009°52'0 0.0
2019-Aug-22 18:24N 54°28' E 009°52'0 0.0
2019-Aug-22 18:00N 54°28' E 009°52'0 0.0
2019-Aug-22 17:29N 54°28' E 009°52'0 0.0
2019-Aug-22 16:59N 54°28' E 009°52'0 0.0
2019-Aug-22 16:21N 54°28' E 009°52'0 0.0
2019-Aug-22 15:52N 54°28' E 009°52'0 0.0
2019-Aug-22 15:29N 54°28' E 009°52'0 0.0
2019-Aug-22 14:58N 54°28' E 009°52'0 0.0
2019-Aug-22 14:28N 54°28' E 009°52'0 0.0
2019-Aug-22 14:00N 54°28' E 009°52'0 0.0
2019-Aug-22 13:28N 54°28' E 009°52'0 0.0
2019-Aug-22 12:54N 54°28' E 009°52'0 0.0
2019-Aug-22 12:19N 54°28' E 009°52'0 0.0
2019-Aug-22 11:53N 54°28' E 009°52'0 0.0
2019-Aug-22 11:23N 54°28' E 009°52'0 0.0
2019-Aug-22 10:53N 54°28' E 009°52'0 0.0
2019-Aug-22 10:18N 54°28' E 009°52'0 0.0
2019-Aug-22 10:00N 54°28' E 009°52'0 0.0
2019-Aug-22 09:26N 54°28' E 009°52'0 0.0
2019-Aug-22 08:58N 54°28' E 009°52'0 0.0
2019-Aug-22 08:27N 54°28' E 009°52'0 0.0
2019-Aug-22 07:57N 54°28' E 009°52'0 0.0
2019-Aug-22 07:30N 54°28' E 009°52'0 0.0
2019-Aug-22 07:00N 54°28' E 009°52'0 0.0
2019-Aug-22 06:24N 54°28' E 009°52'0 0.0
2019-Aug-22 05:52N 54°28' E 009°52'0 0.0
2019-Aug-22 05:20N 54°28' E 009°52'0 0.0
2019-Aug-22 04:53N 54°28' E 009°52'0 0.0
2019-Aug-22 04:28N 54°28' E 009°52'0 0.0
2019-Aug-22 03:56N 54°28' E 009°52'0 0.0
2019-Aug-22 03:29N 54°28' E 009°52'0 0.0
2019-Aug-22 02:53N 54°28' E 009°52'0 0.0
2019-Aug-22 02:26N 54°28' E 009°52'0 0.0
2019-Aug-22 01:52N 54°28' E 009°52'0 0.0
2019-Aug-22 01:22N 54°28' E 009°52'0 0.0
2019-Aug-22 00:59N 54°28' E 009°52'0 0.0
2019-Aug-22 00:28N 54°28' E 009°52'0 0.0
2019-Aug-22 00:00N 54°28' E 009°52'0 0.0
2019-Aug-21 23:29N 54°28' E 009°52'0 0.0
2019-Aug-21 22:58N 54°28' E 009°52'0 0.0
2019-Aug-21 22:26N 54°28' E 009°52'0 0.0
2019-Aug-21 21:59N 54°28' E 009°52'0 0.0
2019-Aug-21 21:30N 54°28' E 009°52'0 0.0
2019-Aug-21 21:00N 54°28' E 009°52'0 0.0
2019-Aug-21 20:27N 54°28' E 009°52'0 0.0
2019-Aug-21 19:54N 54°28' E 009°52'0 0.0
2019-Aug-21 19:21N 54°28' E 009°52'0 0.0
2019-Aug-21 18:58N 54°28' E 009°52'0 0.0
2019-Aug-21 18:29N 54°28' E 009°52'0 0.0
2019-Aug-21 17:46N 54°28' E 009°52'0 0.0
2019-Aug-21 17:28N 54°28' E 009°52'0 0.0
2019-Aug-21 16:53N 54°28' E 009°52'0 0.0
2019-Aug-21 16:20N 54°28' E 009°52'0 0.0
2019-Aug-21 15:59N 54°28' E 009°52'0 0.0
2019-Aug-21 15:30N 54°28' E 009°52'0 0.0
2019-Aug-21 14:58N 54°28' E 009°52'0 0.0
2019-Aug-21 14:29N 54°28' E 009°52'0 0.0
2019-Aug-21 13:44N 54°28' E 009°52'0 0.0
2019-Aug-21 13:29N 54°28' E 009°52'0 0.0
2019-Aug-21 12:59N 54°28' E 009°52'0 0.0
2019-Aug-21 12:30N 54°28' E 009°52'0 0.0
2019-Aug-21 11:56N 54°28' E 009°52'0 0.0
2019-Aug-21 11:24N 54°28' E 009°52'0 0.0
2019-Aug-21 10:48N 54°28' E 009°52'0 0.0
2019-Aug-21 10:27N 54°28' E 009°52'0 0.0
2019-Aug-21 10:00N 54°28' E 009°52'0 0.0
2019-Aug-21 09:30N 54°28' E 009°52'0 0.0
2019-Aug-21 08:58N 54°28' E 009°52'0 0.0
2019-Aug-21 08:30N 54°28' E 009°52'0 0.0
2019-Aug-21 07:51N 54°28' E 009°52'0 0.0
2019-Aug-21 07:15N 54°28' E 009°52'0 0.0
2019-Aug-21 07:00N 54°28' E 009°52'0 0.0
2019-Aug-21 06:30N 54°28' E 009°52'0 0.0
2019-Aug-21 06:00N 54°28' E 009°52'0 0.0
2019-Aug-21 05:21N 54°28' E 009°52'0 0.0
2019-Aug-21 04:59N 54°28' E 009°52'0 0.0
2019-Aug-21 04:25N 54°28' E 009°52'0 0.0
2019-Aug-21 03:56N 54°28' E 009°52'0 0.0
2019-Aug-21 03:26N 54°28' E 009°52'0 0.0
2019-Aug-21 02:57N 54°28' E 009°52'0 0.0
2019-Aug-21 02:28N 54°28' E 009°52'0 0.0
2019-Aug-21 01:54N 54°28' E 009°52'0 0.0
2019-Aug-21 01:29N 54°28' E 009°52'0 0.0
2019-Aug-21 00:59N 54°28' E 009°52'0 0.0
2019-Aug-21 00:29N 54°28' E 009°52'0 0.0
2019-Aug-20 23:53N 54°28' E 009°52'0 0.0
2019-Aug-20 23:22N 54°28' E 009°52'0 0.0
2019-Aug-20 22:52N 54°28' E 009°52'0 0.0
2019-Aug-20 22:22N 54°28' E 009°52'0 0.0
2019-Aug-20 21:51N 54°28' E 009°52'0 0.0
2019-Aug-20 21:30N 54°28' E 009°52'0 0.0
2019-Aug-20 20:58N 54°28' E 009°52'0 0.0
2019-Aug-20 20:11N 54°28' E 009°52'0 0.0
2019-Aug-20 19:59N 54°28' E 009°52'0 0.0
2019-Aug-20 19:25N 54°28' E 009°52'0 0.0
2019-Aug-20 19:00N 54°28' E 009°52'0 0.0
2019-Aug-20 18:19N 54°28' E 009°52'0 0.0
2019-Aug-20 17:54N 54°28' E 009°52'0 0.0
2019-Aug-20 17:24N 54°28' E 009°52'0 0.0
2019-Aug-20 16:59N 54°28' E 009°52'0 0.0
2019-Aug-20 16:18N 54°28' E 009°52'0 0.0
2019-Aug-20 15:55N 54°28' E 009°52'0 0.0
2019-Aug-20 15:26N 54°28' E 009°52'0 0.0
2019-Aug-20 14:58N 54°28' E 009°52'0 0.0
2019-Aug-20 14:21N 54°28' E 009°52'0 0.0
2019-Aug-20 13:55N 54°28' E 009°52'0 0.0
2019-Aug-20 13:22N 54°28' E 009°52'0 0.0
2019-Aug-20 12:54N 54°28' E 009°52'0 0.0
2019-Aug-20 12:25N 54°28' E 009°52'0 0.0
2019-Aug-20 11:53N 54°28' E 009°52'0 0.0
2019-Aug-20 11:28N 54°28' E 009°52'0 0.0
2019-Aug-20 10:54N 54°28' E 009°52'0 0.0
2019-Aug-20 10:24N 54°28' E 009°52'0 0.0
2019-Aug-20 09:53N 54°28' E 009°52'0 0.0
2019-Aug-20 09:27N 54°28' E 009°52'0 0.0
2019-Aug-20 08:57N 54°28' E 009°52'0 0.0
2019-Aug-20 08:30N 54°28' E 009°52'0 0.0
2019-Aug-20 07:58N 54°28' E 009°52'0 0.0
2019-Aug-20 07:30N 54°28' E 009°52'0 0.0
2019-Aug-20 06:58N 54°28' E 009°52'0 0.0
2019-Aug-20 06:30N 54°28' E 009°52'0 0.0
2019-Aug-20 06:00N 54°28' E 009°52'0 0.0
2019-Aug-20 05:30N 54°28' E 009°52'0 0.0
2019-Aug-20 05:00N 54°28' E 009°52'0 0.0
2019-Aug-20 04:19N 54°28' E 009°52'0 0.0
2019-Aug-20 03:59N 54°28' E 009°52'0 0.0
2019-Aug-20 03:30N 54°28' E 009°52'0 0.0
2019-Aug-20 02:59N 54°28' E 009°52'0 0.0
2019-Aug-20 02:28N 54°28' E 009°52'0 0.0
2019-Aug-20 01:58N 54°28' E 009°52'0 0.0
2019-Aug-20 01:28N 54°28' E 009°52'0 0.0
2019-Aug-20 00:58N 54°28' E 009°52'0 0.0
2019-Aug-20 00:29N 54°28' E 009°52'0 0.0
2019-Aug-19 23:55N 54°28' E 009°52'0 0.0
2019-Aug-19 23:21N 54°28' E 009°52'0 0.0
2019-Aug-19 22:56N 54°28' E 009°52'0 0.0
2019-Aug-19 22:20N 54°28' E 009°52'0 0.0
2019-Aug-19 21:53N 54°28' E 009°52'0 0.0
2019-Aug-19 21:28N 54°28' E 009°52'0 0.0
2019-Aug-19 20:57N 54°28' E 009°52'0 0.0
2019-Aug-19 20:18N 54°28' E 009°52'0 0.0
2019-Aug-19 20:00N 54°28' E 009°52'0 0.0
2019-Aug-19 19:13N 54°28' E 009°52'0 0.0
2019-Aug-19 18:22N 54°28' E 009°52'0 0.0
2019-Aug-19 17:56N 54°28' E 009°52'0 0.0
2019-Aug-19 17:22N 54°28' E 009°52'0 0.0
2019-Aug-19 17:00N 54°28' E 009°52'0 0.0
2019-Aug-19 16:30N 54°28' E 009°52'0 0.0
2019-Aug-19 16:00N 54°28' E 009°52'0 0.0
2019-Aug-19 15:29N 54°28' E 009°52'0 0.0
2019-Aug-19 14:57N 54°28' E 009°52'0 0.0
2019-Aug-19 14:28N 54°28' E 009°52'0 0.0
2019-Aug-19 13:59N 54°28' E 009°52'0 0.0
2019-Aug-19 13:29N 54°28' E 009°52'0 0.0
2019-Aug-19 12:58N 54°28' E 009°52'0 0.0
2019-Aug-19 12:28N 54°28' E 009°52'0 0.0
2019-Aug-19 11:59N 54°28' E 009°52'0 0.0
2019-Aug-19 11:29N 54°28' E 009°52'0 0.0
2019-Aug-19 10:52N 54°28' E 009°52'0 0.0
2019-Aug-19 10:16N 54°28' E 009°52'0 0.0
2019-Aug-19 09:58N 54°28' E 009°52'0 0.0
2019-Aug-19 09:28N 54°28' E 009°52'0 0.0
2019-Aug-19 08:55N 54°28' E 009°52'0 0.0
2019-Aug-19 08:25N 54°28' E 009°52'0 0.0
2019-Aug-19 07:59N 54°28' E 009°52'0 0.0
2019-Aug-19 07:19N 54°28' E 009°52'0 0.0
2019-Aug-19 06:56N 54°28' E 009°52'0 0.0
2019-Aug-19 06:29N 54°28' E 009°52'0 0.0
2019-Aug-19 05:58N 54°28' E 009°52'0 0.0
2019-Aug-19 05:29N 54°28' E 009°52'0 0.0
2019-Aug-19 04:52N 54°28' E 009°52'0 0.0
2019-Aug-19 04:27N 54°28' E 009°52'0 0.0
2019-Aug-19 03:51N 54°28' E 009°52'0 0.0
2019-Aug-19 03:21N 54°28' E 009°52'0 0.0
2019-Aug-19 02:51N 54°28' E 009°52'0 0.0
2019-Aug-19 02:28N 54°28' E 009°52'0 0.0
2019-Aug-19 01:58N 54°28' E 009°52'0 0.0
2019-Aug-19 01:23N 54°28' E 009°52'0 0.0
2019-Aug-19 00:59N 54°28' E 009°52'0 0.0
2019-Aug-19 00:29N 54°28' E 009°52'0 0.0
2019-Aug-19 00:00N 54°28' E 009°52'0 0.0
2019-Aug-18 23:30N 54°28' E 009°52'0 0.0
2019-Aug-18 22:58N 54°28' E 009°52'0 0.0
2019-Aug-18 22:28N 54°28' E 009°52'0 0.0
2019-Aug-18 21:58N 54°28' E 009°52'0 0.0
2019-Aug-18 21:28N 54°28' E 009°52'0 0.0
2019-Aug-18 20:47N 54°28' E 009°52'0 0.0
2019-Aug-18 20:24N 54°28' E 009°52'0 0.0
2019-Aug-18 19:58N 54°28' E 009°52'0 0.0
2019-Aug-18 19:30N 54°28' E 009°52'0 0.0
2019-Aug-18 18:56N 54°28' E 009°52'0 0.0
2019-Aug-18 18:26N 54°28' E 009°52'0 0.0
2019-Aug-18 17:59N 54°28' E 009°52'0 0.0
2019-Aug-18 17:19N 54°28' E 009°52'0 0.0
2019-Aug-18 16:49N 54°28' E 009°52'0 0.0
2019-Aug-18 16:30N 54°28' E 009°52'0 0.0
2019-Aug-18 15:55N 54°28' E 009°52'0 0.0
2019-Aug-18 15:28N 54°28' E 009°52'0 0.0
2019-Aug-18 14:59N 54°28' E 009°52'0 0.0
2019-Aug-18 14:29N 54°28' E 009°52'0 0.0
2019-Aug-18 13:59N 54°28' E 009°52'0 0.0
2019-Aug-18 13:29N 54°28' E 009°52'0 0.0
2019-Aug-18 12:59N 54°28' E 009°52'0 0.0
2019-Aug-18 12:25N 54°28' E 009°52'0 0.0
2019-Aug-18 11:55N 54°28' E 009°52'0 0.0
2019-Aug-18 11:24N 54°28' E 009°52'0 0.0
2019-Aug-18 10:58N 54°28' E 009°52'0 0.0
2019-Aug-18 10:25N 54°28' E 009°52'0 0.0
2019-Aug-18 09:58N 54°28' E 009°52'0 0.0
2019-Aug-18 09:29N 54°28' E 009°52'0 0.0
2019-Aug-18 08:59N 54°28' E 009°52'0 0.0
2019-Aug-18 08:25N 54°28' E 009°52'0 0.0
2019-Aug-18 07:59N 54°28' E 009°52'0 0.0
2019-Aug-18 06:58N 54°28' E 009°52'0 0.0
2019-Aug-18 06:26N 54°28' E 009°52'0 0.0
2019-Aug-18 05:54N 54°28' E 009°52'0 0.0
2019-Aug-18 05:29N 54°28' E 009°52'0 0.0
2019-Aug-18 04:41N 54°28' E 009°52'0 0.0
2019-Aug-18 04:29N 54°28' E 009°52'0 0.0
2019-Aug-18 03:59N 54°28' E 009°52'0 0.0
2019-Aug-18 03:30N 54°28' E 009°52'0 0.0
2019-Aug-18 03:00N 54°28' E 009°52'0 0.0
2019-Aug-18 02:28N 54°28' E 009°52'0 0.0
2019-Aug-18 01:58N 54°28' E 009°52'0 0.0
2019-Aug-18 01:22N 54°28' E 009°52'0 0.0
2019-Aug-18 00:58N 54°28' E 009°52'0 0.0
2019-Aug-18 00:26N 54°28' E 009°52'0 0.0
2019-Aug-17 23:56N 54°28' E 009°52'0 0.0
2019-Aug-17 23:25N 54°28' E 009°52'0 0.0
2019-Aug-17 22:56N 54°28' E 009°52'0 0.0
2019-Aug-17 22:24N 54°28' E 009°52'0 0.0
2019-Aug-17 21:55N 54°28' E 009°52'0 0.0
2019-Aug-17 21:28N 54°28' E 009°52'0 0.0
2019-Aug-17 20:50N 54°28' E 009°52'0 0.0
2019-Aug-17 20:23N 54°28' E 009°52'0 0.0
2019-Aug-17 19:53N 54°28' E 009°52'0 0.0
2019-Aug-17 19:30N 54°28' E 009°52'0 0.0
2019-Aug-17 18:50N 54°28' E 009°52'0 0.0
2019-Aug-17 18:24N 54°28' E 009°52'0 0.0
2019-Aug-17 17:22N 54°28' E 009°52'0 0.0
2019-Aug-17 16:56N 54°28' E 009°52'0 0.0
2019-Aug-17 16:25N 54°28' E 009°52'0 0.0
2019-Aug-17 16:00N 54°28' E 009°52'0 0.0
2019-Aug-17 15:30N 54°28' E 009°52'0 0.0
2019-Aug-17 14:48N 54°28' E 009°52'0 0.0
2019-Aug-17 14:30N 54°28' E 009°52'0 0.0
2019-Aug-17 14:00N 54°28' E 009°52'0 0.0
2019-Aug-17 13:28N 54°28' E 009°52'0 0.0
2019-Aug-17 12:48N 54°28' E 009°52'0 0.0
2019-Aug-17 12:26N 54°28' E 009°52'0 0.0
2019-Aug-17 12:00N 54°28' E 009°52'0 0.0
2019-Aug-17 11:22N 54°28' E 009°52'0 0.0
2019-Aug-17 10:50N 54°28' E 009°52'0 0.0
2019-Aug-17 10:30N 54°28' E 009°52'0 0.0
2019-Aug-17 09:55N 54°28' E 009°52'0 0.0
2019-Aug-17 09:26N 54°28' E 009°52'0 0.0
2019-Aug-17 08:51N 54°28' E 009°52'0 0.0
2019-Aug-17 08:29N 54°28' E 009°52'0 0.0
2019-Aug-17 07:58N 54°28' E 009°52'0 0.0
2019-Aug-17 07:21N 54°28' E 009°52'0 0.0
2019-Aug-17 06:59N 54°28' E 009°52'0 0.0
2019-Aug-17 06:21N 54°28' E 009°52'0 0.0
2019-Aug-17 05:59N 54°28' E 009°52'0 0.0
2019-Aug-17 05:12N 54°28' E 009°52'0 0.0
2019-Aug-17 04:57N 54°28' E 009°52'0 0.0
2019-Aug-17 04:27N 54°28' E 009°52'0 0.0
2019-Aug-17 03:58N 54°28' E 009°52'0 0.0
2019-Aug-17 03:26N 54°28' E 009°52'0 0.0
2019-Aug-17 02:58N 54°28' E 009°52'0 0.0
2019-Aug-17 02:20N 54°28' E 009°52'0 0.0
2019-Aug-17 01:53N 54°28' E 009°52'0 0.0
2019-Aug-17 01:23N 54°28' E 009°52'0 0.0
2019-Aug-17 00:49N 54°28' E 009°52'0 0.0
2019-Aug-17 00:23N 54°28' E 009°52'0 0.0
2019-Aug-16 23:59N 54°28' E 009°52'0 0.0
2019-Aug-16 23:31N 54°28' E 009°52'0 0.0
2019-Aug-16 22:52N 54°28' E 009°52'0 0.0
2019-Aug-16 22:29N 54°28' E 009°52'0 0.0
2019-Aug-16 21:58N 54°28' E 009°52'0 0.0
2019-Aug-16 21:28N 54°28' E 009°52'0 0.0
2019-Aug-16 20:56N 54°28' E 009°52'0 0.0
2019-Aug-16 20:24N 54°28' E 009°52'0 0.0
2019-Aug-16 19:55N 54°28' E 009°52'0 0.0
2019-Aug-16 19:25N 54°28' E 009°52'0 0.0
2019-Aug-16 18:47N 54°28' E 009°52'0 0.0
2019-Aug-16 18:29N 54°28' E 009°52'0 0.0
2019-Aug-16 18:00N 54°28' E 009°52'0 0.0
2019-Aug-16 17:25N 54°28' E 009°52'0 0.0
2019-Aug-16 16:54N 54°28' E 009°52'0 0.0
2019-Aug-16 16:27N 54°28' E 009°52'0 0.0
2019-Aug-16 15:57N 54°28' E 009°52'0 0.0
2019-Aug-16 15:28N 54°28' E 009°52'0 0.0
2019-Aug-16 14:59N 54°28' E 009°52'0 0.0
2019-Aug-16 14:29N 54°28' E 009°52'0 0.0
2019-Aug-16 13:59N 54°28' E 009°52'0 0.0
2019-Aug-16 13:28N 54°28' E 009°52'0 0.0
2019-Aug-16 12:56N 54°28' E 009°52'0 0.0
2019-Aug-16 12:29N 54°28' E 009°52'0 0.0
2019-Aug-16 11:54N 54°28' E 009°52'0 0.0
2019-Aug-16 11:28N 54°28' E 009°52'0 0.0
2019-Aug-16 10:55N 54°28' E 009°52'0 0.0
2019-Aug-16 10:23N 54°28' E 009°52'0 0.0
2019-Aug-16 10:00N 54°28' E 009°52'0 0.0
2019-Aug-16 09:25N 54°28' E 009°52'0 0.0
2019-Aug-16 08:59N 54°28' E 009°52'0 0.0
2019-Aug-16 08:28N 54°28' E 009°52'  

Dump ship's entire track history